sensor_id;sensor_type;location;lat;lon;timestamp;P1;durP1;ratioP1;P2;durP2;ratioP2
17449;SDS011;8842;51.244;7.102;2022-11-23T00:00:09;11.70;;;11.10;;
17449;SDS011;8842;51.244;7.102;2022-11-23T00:05:30;12.03;;;11.33;;
17449;SDS011;8842;51.244;7.102;2022-11-23T00:10:36;11.47;;;10.87;;
17449;SDS011;8842;51.244;7.102;2022-11-23T00:20:54;11.20;;;10.60;;
17449;SDS011;8842;51.244;7.102;2022-11-23T00:31:18;11.40;;;10.80;;
17449;SDS011;8842;51.244;7.102;2022-11-23T00:36:23;11.60;;;11.00;;
17449;SDS011;8842;51.244;7.102;2022-11-23T00:41:38;11.63;;;11.03;;
17449;SDS011;8842;51.244;7.102;2022-11-23T00:52:02;11.73;;;11.13;;
17449;SDS011;8842;51.244;7.102;2022-11-23T01:02:20;11.17;;;10.57;;
17449;SDS011;8842;51.244;7.102;2022-11-23T01:12:37;12.60;;;11.50;;
17449;SDS011;8842;51.244;7.102;2022-11-23T01:17:42;11.80;;;11.20;;
17449;SDS011;8842;51.244;7.102;2022-11-23T01:22:56;11.60;;;11.00;;
17449;SDS011;8842;51.244;7.102;2022-11-23T01:33:19;11.10;;;10.50;;
17449;SDS011;8842;51.244;7.102;2022-11-23T01:38:24;11.33;;;10.73;;
17449;SDS011;8842;51.244;7.102;2022-11-23T01:43:37;11.60;;;11.00;;
17449;SDS011;8842;51.244;7.102;2022-11-23T01:48:42;11.43;;;10.83;;
17449;SDS011;8842;51.244;7.102;2022-11-23T01:53:58;11.30;;;10.70;;
17449;SDS011;8842;51.244;7.102;2022-11-23T01:59:06;11.10;;;10.50;;
17449;SDS011;8842;51.244;7.102;2022-11-23T02:04:28;11.03;;;10.43;;
17449;SDS011;8842;51.244;7.102;2022-11-23T02:09:34;11.20;;;10.60;;
17449;SDS011;8842;51.244;7.102;2022-11-23T02:14:55;10.90;;;10.30;;
17449;SDS011;8842;51.244;7.102;2022-11-23T02:25:26;11.20;;;10.60;;
17449;SDS011;8842;51.244;7.102;2022-11-23T02:35:50;11.10;;;10.50;;
17449;SDS011;8842;51.244;7.102;2022-11-23T02:40:55;10.60;;;10.10;;
17449;SDS011;8842;51.244;7.102;2022-11-23T02:46:09;11.20;;;10.60;;
17449;SDS011;8842;51.244;7.102;2022-11-23T02:56:34;10.40;;;9.90;;
17449;SDS011;8842;51.244;7.102;2022-11-23T03:06:57;11.30;;;10.70;;
17449;SDS011;8842;51.244;7.102;2022-11-23T03:12:02;11.67;;;10.87;;
17449;SDS011;8842;51.244;7.102;2022-11-23T03:17:22;11.30;;;10.70;;
17449;SDS011;8842;51.244;7.102;2022-11-23T03:27:39;11.37;;;10.77;;
17449;SDS011;8842;51.244;7.102;2022-11-23T03:32:43;12.57;;;10.97;;
17449;SDS011;8842;51.244;7.102;2022-11-23T03:37:57;11.63;;;10.93;;
17449;SDS011;8842;51.244;7.102;2022-11-23T03:48:15;11.23;;;10.63;;
17449;SDS011;8842;51.244;7.102;2022-11-23T03:58:32;11.47;;;10.87;;
17449;SDS011;8842;51.244;7.102;2022-11-23T04:08:50;11.60;;;11.00;;
17449;SDS011;8842;51.244;7.102;2022-11-23T04:19:08;11.53;;;10.93;;
17449;SDS011;8842;51.244;7.102;2022-11-23T04:29:26;11.77;;;11.17;;
17449;SDS011;8842;51.244;7.102;2022-11-23T04:34:30;11.90;;;11.30;;
17449;SDS011;8842;51.244;7.102;2022-11-23T04:39:51;11.90;;;11.30;;
17449;SDS011;8842;51.244;7.102;2022-11-23T04:50:15;11.90;;;11.30;;
17449;SDS011;8842;51.244;7.102;2022-11-23T05:00:33;12.17;;;11.57;;
17449;SDS011;8842;51.244;7.102;2022-11-23T05:05:37;12.60;;;11.90;;
17449;SDS011;8842;51.244;7.102;2022-11-23T05:10:51;13.10;;;12.40;;
17449;SDS011;8842;51.244;7.102;2022-11-23T05:15:55;12.80;;;12.10;;
17449;SDS011;8842;51.244;7.102;2022-11-23T05:21:16;12.97;;;12.27;;
17449;SDS011;8842;51.244;7.102;2022-11-23T05:26:20;12.30;;;11.70;;
17449;SDS011;8842;51.244;7.102;2022-11-23T05:31:34;12.30;;;11.70;;
17449;SDS011;8842;51.244;7.102;2022-11-23T05:41:58;12.13;;;11.53;;
17449;SDS011;8842;51.244;7.102;2022-11-23T05:52:16;12.30;;;11.70;;
17449;SDS011;8842;51.244;7.102;2022-11-23T06:02:34;13.33;;;12.63;;
17449;SDS011;8842;51.244;7.102;2022-11-23T06:12:51;13.50;;;12.70;;
17449;SDS011;8842;51.244;7.102;2022-11-23T06:17:58;12.90;;;12.20;;
17449;SDS011;8842;51.244;7.102;2022-11-23T06:23:12;13.27;;;12.57;;
17449;SDS011;8842;51.244;7.102;2022-11-23T06:33:29;13.53;;;12.83;;
17449;SDS011;8842;51.244;7.102;2022-11-23T06:38:34;13.87;;;13.07;;
17449;SDS011;8842;51.244;7.102;2022-11-23T06:43:48;13.77;;;13.07;;
17449;SDS011;8842;51.244;7.102;2022-11-23T06:48:52;13.60;;;12.90;;
17449;SDS011;8842;51.244;7.102;2022-11-23T06:53:56;13.77;;;13.07;;
17449;SDS011;8842;51.244;7.102;2022-11-23T06:59:00;14.10;;;13.30;;
17449;SDS011;8842;51.244;7.102;2022-11-23T07:04:14;14.60;;;13.80;;
17449;SDS011;8842;51.244;7.102;2022-11-23T07:14:30;13.93;;;13.23;;
17449;SDS011;8842;51.244;7.102;2022-11-23T07:19:34;14.30;;;13.50;;
17449;SDS011;8842;51.244;7.102;2022-11-23T07:24:38;13.40;;;12.70;;
17449;SDS011;8842;51.244;7.102;2022-11-23T07:29:53;13.93;;;13.23;;
17449;SDS011;8842;51.244;7.102;2022-11-23T07:34:57;14.90;;;14.10;;
17449;SDS011;8842;51.244;7.102;2022-11-23T07:40:01;13.70;;;13.00;;
17449;SDS011;8842;51.244;7.102;2022-11-23T07:45:21;13.57;;;12.87;;
17449;SDS011;8842;51.244;7.102;2022-11-23T07:50:26;13.60;;;12.90;;
17449;SDS011;8842;51.244;7.102;2022-11-23T07:55:40;13.73;;;13.03;;
17449;SDS011;8842;51.244;7.102;2022-11-23T08:00:45;13.90;;;13.20;;
17449;SDS011;8842;51.244;7.102;2022-11-23T08:06:08;13.40;;;12.70;;
17449;SDS011;8842;51.244;7.102;2022-11-23T08:16:27;13.70;;;13.00;;
17449;SDS011;8842;51.244;7.102;2022-11-23T08:26:48;13.90;;;13.10;;
17449;SDS011;8842;51.244;7.102;2022-11-23T08:31:52;13.50;;;12.80;;
17449;SDS011;8842;51.244;7.102;2022-11-23T08:37:05;11.43;;;10.83;;
17449;SDS011;8842;51.244;7.102;2022-11-23T08:42:09;12.00;;;11.30;;
17449;SDS011;8842;51.244;7.102;2022-11-23T08:47:14;12.20;;;11.60;;
17449;SDS011;8842;51.244;7.102;2022-11-23T08:52:18;13.10;;;12.40;;
17449;SDS011;8842;51.244;7.102;2022-11-23T08:57:22;12.40;;;11.80;;
17449;SDS011;8842;51.244;7.102;2022-11-23T09:02:42;11.37;;;10.77;;
17449;SDS011;8842;51.244;7.102;2022-11-23T09:07:47;11.47;;;10.87;;
17449;SDS011;8842;51.244;7.102;2022-11-23T09:13:08;11.77;;;11.17;;
17449;SDS011;8842;51.244;7.102;2022-11-23T09:18:12;11.10;;;10.50;;
17449;SDS011;8842;51.244;7.102;2022-11-23T09:23:27;10.73;;;10.17;;
17449;SDS011;8842;51.244;7.102;2022-11-23T09:28:46;10.10;;;9.60;;
17449;SDS011;8842;51.244;7.102;2022-11-23T09:33:51;9.70;;;9.20;;
17449;SDS011;8842;51.244;7.102;2022-11-23T09:39:05;9.10;;;8.70;;
17449;SDS011;8842;51.244;7.102;2022-11-23T09:44:12;9.40;;;8.90;;
17449;SDS011;8842;51.244;7.102;2022-11-23T09:49:28;9.80;;;9.30;;
17449;SDS011;8842;51.244;7.102;2022-11-23T09:54:35;21.67;;;9.03;;
17449;SDS011;8842;51.244;7.102;2022-11-23T09:59:54;9.70;;;9.10;;
17449;SDS011;8842;51.244;7.102;2022-11-23T10:05:10;9.50;;;9.00;;
17449;SDS011;8842;51.244;7.102;2022-11-23T10:10:31;8.50;;;8.10;;
17449;SDS011;8842;51.244;7.102;2022-11-23T10:15:43;9.40;;;8.90;;
17449;SDS011;8842;51.244;7.102;2022-11-23T10:20:58;9.57;;;9.07;;
17449;SDS011;8842;51.244;7.102;2022-11-23T10:31:22;9.27;;;8.77;;
17449;SDS011;8842;51.244;7.102;2022-11-23T10:36:28;8.97;;;8.53;;
17449;SDS011;8842;51.244;7.102;2022-11-23T10:41:39;9.00;;;8.57;;
17449;SDS011;8842;51.244;7.102;2022-11-23T10:46:44;8.20;;;7.80;;
17449;SDS011;8842;51.244;7.102;2022-11-23T10:51:58;9.40;;;8.70;;
17449;SDS011;8842;51.244;7.102;2022-11-23T10:57:20;8.40;;;8.00;;
17449;SDS011;8842;51.244;7.102;2022-11-23T11:02:37;8.43;;;8.03;;
17449;SDS011;8842;51.244;7.102;2022-11-23T11:07:42;7.97;;;7.57;;
17449;SDS011;8842;51.244;7.102;2022-11-23T11:12:54;8.20;;;7.80;;
17449;SDS011;8842;51.244;7.102;2022-11-23T11:17:58;8.40;;;7.90;;
17449;SDS011;8842;51.244;7.102;2022-11-23T11:23:15;8.47;;;8.00;;
17449;SDS011;8842;51.244;7.102;2022-11-23T11:28:23;8.17;;;7.73;;
17449;SDS011;8842;51.244;7.102;2022-11-23T11:33:31;7.90;;;7.50;;
17449;SDS011;8842;51.244;7.102;2022-11-23T11:38:48;8.30;;;7.80;;
17449;SDS011;8842;51.244;7.102;2022-11-23T11:43:56;8.33;;;7.80;;
17449;SDS011;8842;51.244;7.102;2022-11-23T11:49:12;7.77;;;7.37;;
17449;SDS011;8842;51.244;7.102;2022-11-23T11:54:20;7.80;;;7.40;;
17449;SDS011;8842;51.244;7.102;2022-11-23T11:59:38;6.90;;;6.60;;
17449;SDS011;8842;51.244;7.102;2022-11-23T12:04:47;8.33;;;7.93;;
17449;SDS011;8842;51.244;7.102;2022-11-23T12:10:03;8.60;;;8.20;;
17449;SDS011;8842;51.244;7.102;2022-11-23T12:15:15;9.57;;;8.80;;
17449;SDS011;8842;51.244;7.102;2022-11-23T12:25:42;8.70;;;8.30;;
17449;SDS011;8842;51.244;7.102;2022-11-23T12:36:08;8.33;;;7.93;;
17449;SDS011;8842;51.244;7.102;2022-11-23T12:41:25;8.67;;;8.27;;
17449;SDS011;8842;51.244;7.102;2022-11-23T12:51:50;9.27;;;8.77;;
17449;SDS011;8842;51.244;7.102;2022-11-23T12:57:03;9.50;;;8.80;;
17449;SDS011;8842;51.244;7.102;2022-11-23T13:13:35;9.53;;;9.03;;
17449;SDS011;8842;51.244;7.102;2022-11-23T13:19:22;9.00;;;8.60;;
17449;SDS011;8842;51.244;7.102;2022-11-23T13:24:39;9.30;;;8.80;;
17449;SDS011;8842;51.244;7.102;2022-11-23T13:29:54;8.80;;;8.40;;
17449;SDS011;8842;51.244;7.102;2022-11-23T13:40:52;9.10;;;8.50;;
17449;SDS011;8842;51.244;7.102;2022-11-23T13:46:11;8.67;;;8.27;;
17449;SDS011;8842;51.244;7.102;2022-11-23T13:56:38;8.30;;;7.90;;
17449;SDS011;8842;51.244;7.102;2022-11-23T14:07:43;8.40;;;8.00;;
17449;SDS011;8842;51.244;7.102;2022-11-23T14:18:13;8.80;;;8.40;;
17449;SDS011;8842;51.244;7.102;2022-11-23T14:35:18;8.20;;;7.80;;
17449;SDS011;8842;51.244;7.102;2022-11-23T14:40:28;8.40;;;7.90;;
17449;SDS011;8842;51.244;7.102;2022-11-23T14:50:53;7.90;;;7.50;;
17449;SDS011;8842;51.244;7.102;2022-11-23T14:56:15;7.97;;;7.57;;
17449;SDS011;8842;51.244;7.102;2022-11-23T15:01:24;7.87;;;7.47;;
17449;SDS011;8842;51.244;7.102;2022-11-23T15:06:38;8.07;;;7.67;;
17449;SDS011;8842;51.244;7.102;2022-11-23T15:11:46;12.07;;;8.57;;
17449;SDS011;8842;51.244;7.102;2022-11-23T15:22:12;16.33;;;7.20;;
17449;SDS011;8842;51.244;7.102;2022-11-23T15:27:27;7.30;;;7.00;;
17449;SDS011;8842;51.244;7.102;2022-11-23T15:32:32;8.10;;;7.50;;
17449;SDS011;8842;51.244;7.102;2022-11-23T15:37:46;7.80;;;7.40;;
17449;SDS011;8842;51.244;7.102;2022-11-23T15:42:52;8.40;;;7.60;;
17449;SDS011;8842;51.244;7.102;2022-11-23T15:48:08;7.07;;;6.77;;
17449;SDS011;8842;51.244;7.102;2022-11-23T15:53:14;7.70;;;7.30;;
17449;SDS011;8842;51.244;7.102;2022-11-23T16:09:33;7.30;;;7.00;;
17449;SDS011;8842;51.244;7.102;2022-11-23T16:14:39;7.10;;;6.80;;
17449;SDS011;8842;51.244;7.102;2022-11-23T16:25:07;9.60;;;9.10;;
17449;SDS011;8842;51.244;7.102;2022-11-23T16:30:22;9.40;;;8.90;;
17449;SDS011;8842;51.244;7.102;2022-11-23T16:35:29;11.07;;;10.47;;
17449;SDS011;8842;51.244;7.102;2022-11-23T16:40:43;11.80;;;11.20;;
17449;SDS011;8842;51.244;7.102;2022-11-23T16:45:49;11.33;;;10.73;;
17449;SDS011;8842;51.244;7.102;2022-11-23T16:50:54;11.00;;;10.40;;
17449;SDS011;8842;51.244;7.102;2022-11-23T16:56:10;10.80;;;10.30;;
17449;SDS011;8842;51.244;7.102;2022-11-23T17:01:18;10.43;;;9.93;;
17449;SDS011;8842;51.244;7.102;2022-11-23T17:06:31;11.27;;;10.67;;
17449;SDS011;8842;51.244;7.102;2022-11-23T17:11:37;11.57;;;10.97;;
17449;SDS011;8842;51.244;7.102;2022-11-23T17:21:56;11.37;;;10.77;;
17449;SDS011;8842;51.244;7.102;2022-11-23T17:32:12;10.30;;;9.80;;
17449;SDS011;8842;51.244;7.102;2022-11-23T17:37:17;10.73;;;10.23;;
17449;SDS011;8842;51.244;7.102;2022-11-23T17:42:31;11.00;;;10.40;;
17449;SDS011;8842;51.244;7.102;2022-11-23T17:47:36;11.20;;;10.60;;
17449;SDS011;8842;51.244;7.102;2022-11-23T17:52:57;10.87;;;10.27;;
17449;SDS011;8842;51.244;7.102;2022-11-23T17:58:02;11.40;;;10.80;;
17449;SDS011;8842;51.244;7.102;2022-11-23T18:03:06;10.40;;;9.90;;
17449;SDS011;8842;51.244;7.102;2022-11-23T18:08:26;10.20;;;9.70;;
17449;SDS011;8842;51.244;7.102;2022-11-23T18:13:30;10.83;;;10.27;;
17449;SDS011;8842;51.244;7.102;2022-11-23T18:18:45;10.07;;;9.57;;
17449;SDS011;8842;51.244;7.102;2022-11-23T18:23:50;9.70;;;9.20;;
17449;SDS011;8842;51.244;7.102;2022-11-23T18:29:03;10.00;;;9.50;;
17449;SDS011;8842;51.244;7.102;2022-11-23T18:34:08;11.00;;;10.40;;
17449;SDS011;8842;51.244;7.102;2022-11-23T18:39:22;11.50;;;10.90;;
17449;SDS011;8842;51.244;7.102;2022-11-23T18:44:26;11.87;;;11.27;;
17449;SDS011;8842;51.244;7.102;2022-11-23T18:49:39;12.00;;;11.40;;
17449;SDS011;8842;51.244;7.102;2022-11-23T18:54:44;11.63;;;11.03;;
17449;SDS011;8842;51.244;7.102;2022-11-23T18:59:48;11.60;;;11.00;;
17449;SDS011;8842;51.244;7.102;2022-11-23T19:10:07;11.00;;;10.40;;
17449;SDS011;8842;51.244;7.102;2022-11-23T19:15:11;11.07;;;10.47;;
17449;SDS011;8842;51.244;7.102;2022-11-23T19:25:36;11.63;;;11.03;;
17449;SDS011;8842;51.244;7.102;2022-11-23T19:30:40;11.67;;;11.07;;
17449;SDS011;8842;51.244;7.102;2022-11-23T19:35:55;11.50;;;10.90;;
17449;SDS011;8842;51.244;7.102;2022-11-23T19:40:59;11.47;;;10.87;;
17449;SDS011;8842;51.244;7.102;2022-11-23T19:46:19;11.30;;;10.70;;
17449;SDS011;8842;51.244;7.102;2022-11-23T19:51:24;11.50;;;10.90;;
17449;SDS011;8842;51.244;7.102;2022-11-23T19:56:44;11.30;;;10.70;;
17449;SDS011;8842;51.244;7.102;2022-11-23T20:01:50;11.30;;;10.70;;
17449;SDS011;8842;51.244;7.102;2022-11-23T20:07:11;11.23;;;10.63;;
17449;SDS011;8842;51.244;7.102;2022-11-23T20:12:15;11.70;;;11.10;;
17449;SDS011;8842;51.244;7.102;2022-11-23T20:17:30;11.40;;;10.80;;
17449;SDS011;8842;51.244;7.102;2022-11-23T20:22:34;11.57;;;10.97;;
17449;SDS011;8842;51.244;7.102;2022-11-23T20:27:48;11.73;;;11.13;;
17449;SDS011;8842;51.244;7.102;2022-11-23T20:32:52;11.60;;;11.00;;
17449;SDS011;8842;51.244;7.102;2022-11-23T20:38:06;11.50;;;10.90;;
17449;SDS011;8842;51.244;7.102;2022-11-23T20:43:21;11.30;;;10.70;;
17449;SDS011;8842;51.244;7.102;2022-11-23T20:48:25;10.97;;;10.37;;
17449;SDS011;8842;51.244;7.102;2022-11-23T20:53:40;11.83;;;11.23;;
17449;SDS011;8842;51.244;7.102;2022-11-23T20:58:44;11.70;;;11.10;;
17449;SDS011;8842;51.244;7.102;2022-11-23T21:03:59;11.30;;;10.70;;
17449;SDS011;8842;51.244;7.102;2022-11-23T21:09:03;11.80;;;11.20;;
17449;SDS011;8842;51.244;7.102;2022-11-23T21:14:17;11.83;;;11.23;;
17449;SDS011;8842;51.244;7.102;2022-11-23T21:24:37;11.67;;;11.07;;
17449;SDS011;8842;51.244;7.102;2022-11-23T21:29:42;11.80;;;11.20;;
17449;SDS011;8842;51.244;7.102;2022-11-23T21:40:07;11.70;;;11.10;;
17449;SDS011;8842;51.244;7.102;2022-11-23T21:45:13;11.57;;;10.97;;
17449;SDS011;8842;51.244;7.102;2022-11-23T21:50:34;11.80;;;11.20;;
17449;SDS011;8842;51.244;7.102;2022-11-23T21:55:38;11.70;;;11.10;;
17449;SDS011;8842;51.244;7.102;2022-11-23T22:00:53;11.67;;;11.03;;
17449;SDS011;8842;51.244;7.102;2022-11-23T22:11:13;11.53;;;10.93;;
17449;SDS011;8842;51.244;7.102;2022-11-23T22:21:39;12.07;;;11.47;;
17449;SDS011;8842;51.244;7.102;2022-11-23T22:26:45;12.10;;;11.50;;
17449;SDS011;8842;51.244;7.102;2022-11-23T22:31:49;12.30;;;11.70;;
17449;SDS011;8842;51.244;7.102;2022-11-23T22:37:04;12.30;;;11.70;;
17449;SDS011;8842;51.244;7.102;2022-11-23T22:42:08;11.40;;;10.80;;
17449;SDS011;8842;51.244;7.102;2022-11-23T22:52:32;11.90;;;11.30;;
17449;SDS011;8842;51.244;7.102;2022-11-23T22:57:37;12.20;;;11.60;;
17449;SDS011;8842;51.244;7.102;2022-11-23T23:02:52;12.20;;;11.60;;
17449;SDS011;8842;51.244;7.102;2022-11-23T23:07:57;12.17;;;11.57;;
17449;SDS011;8842;51.244;7.102;2022-11-23T23:13:11;11.90;;;11.30;;
17449;SDS011;8842;51.244;7.102;2022-11-23T23:18:16;11.60;;;11.00;;
17449;SDS011;8842;51.244;7.102;2022-11-23T23:23:31;12.00;;;11.40;;
17449;SDS011;8842;51.244;7.102;2022-11-23T23:28:36;12.23;;;11.63;;
17449;SDS011;8842;51.244;7.102;2022-11-23T23:33:50;11.80;;;11.20;;
17449;SDS011;8842;51.244;7.102;2022-11-23T23:44:09;11.70;;;11.10;;
17449;SDS011;8842;51.244;7.102;2022-11-23T23:49:14;12.20;;;11.60;;
17449;SDS011;8842;51.244;7.102;2022-11-23T23:54:19;11.80;;;11.20;;
17449;SDS011;8842;51.244;7.102;2022-11-23T23:59:33;11.50;;;10.90;;
